Time;durP1;ratioP1;P1;durP2;ratioP2;P2;SDS_P1;SDS_P2;PMS_P1;PMS_P2;Temp;Humidity;BMP_temperature;BMP_pressure;BME280_temperature;BME280_humidity;BME280_pressure;Samples;Min_cycle;Max_cycle;Signal;HPM_P1;HPM_P2
2021/12/22 00:00:38;;;;;;;25.80;13.80;;;;;;;-2.64;73.45;100929.92;102964;1316;139163;-67
2021/12/22 00:03:12;;;;;;;28.10;14.00;;;;;;;-2.69;73.84;100932.96;102982;1316;138235;-67
2021/12/22 00:05:46;;;;;;;29.50;14.10;;;;;;;-2.73;73.67;100931.81;103171;1314;108926;-66
2021/12/22 00:08:19;;;;;;;31.30;15.10;;;;;;;-2.80;73.74;100931.79;102975;1315;139361;-67
2021/12/22 00:10:50;;;;;;;28.50;14.00;;;;;;;-2.81;74.06;100935.83;102983;1315;138938;-67
2021/12/22 00:13:23;;;;;;;24.30;12.80;;;;;;;-2.79;73.96;100934.52;103004;1315;139464;-66
2021/12/22 00:15:55;;;;;;;26.00;13.60;;;;;;;-2.76;74.08;100935.98;102969;1315;138587;-66
2021/12/22 00:18:27;;;;;;;25.40;13.30;;;;;;;-2.71;74.28;100936.66;103937;1315;142310;-67
2021/12/22 00:20:59;;;;;;;25.10;13.40;;;;;;;-2.65;74.36;100938.23;104402;1316;138499;-68
2021/12/22 00:23:31;;;;;;;24.20;13.50;;;;;;;-2.65;74.04;100942.14;103527;1312;97873;-67
2021/12/22 00:26:03;;;;;;;24.90;12.60;;;;;;;-2.66;74.06;100940.23;103051;1315;138421;-66
2021/12/22 00:28:40;;;;;;;23.00;12.00;;;;;;;-2.63;74.19;100940.33;103032;1315;138725;-68
2021/12/22 00:31:14;;;;;;;26.60;13.50;;;;;;;-2.62;74.05;100943.23;102973;1315;139329;-67
2021/12/22 00:33:48;;;;;;;23.00;13.70;;;;;;;-2.64;73.83;100944.21;102989;1315;138469;-68
2021/12/22 00:36:24;;;;;;;22.60;13.00;;;;;;;-2.66;74.03;100946.70;103136;1315;138504;-67
2021/12/22 00:38:56;;;;;;;23.70;13.60;;;;;;;-2.68;73.93;100942.89;104265;1316;138476;-67
2021/12/22 00:41:28;;;;;;;25.70;13.90;;;;;;;-2.71;73.97;100947.88;103176;1315;112715;-67
2021/12/22 00:44:00;;;;;;;22.90;13.30;;;;;;;-2.73;73.62;100948.68;102973;1315;140064;-69
2021/12/22 00:46:33;;;;;;;22.50;13.10;;;;;;;-2.72;73.96;100952.09;103007;1315;138975;-68
2021/12/22 00:49:05;;;;;;;23.10;13.10;;;;;;;-2.73;73.84;100952.75;102974;1315;139495;-67
2021/12/22 00:51:37;;;;;;;22.80;12.80;;;;;;;-2.71;73.88;100953.67;103032;1315;139234;-68
2021/12/22 00:54:09;;;;;;;22.10;13.50;;;;;;;-2.67;74.01;100949.73;103129;1315;112619;-67
2021/12/22 00:56:41;;;;;;;20.80;13.10;;;;;;;-2.64;74.19;100957.31;102898;1315;138479;-67
2021/12/22 00:59:13;;;;;;;30.80;13.70;;;;;;;-2.65;73.30;100954.08;104491;1315;109057;-68
2021/12/22 01:01:45;;;;;;;23.50;13.80;;;;;;;-2.67;73.75;100955.52;104085;1313;139406;-68
2021/12/22 01:04:38;;;;;;;22.80;13.20;;;;;;;-2.71;73.80;100954.02;104261;1315;138575;-68
2021/12/22 01:07:11;;;;;;;26.40;14.30;;;;;;;-2.76;73.38;100956.57;104434;1315;139385;-68
2021/12/22 01:09:43;;;;;;;24.80;14.70;;;;;;;-2.80;73.05;100956.61;103598;1317;138575;-68
2021/12/22 01:12:15;;;;;;;23.50;14.00;;;;;;;-2.85;73.66;100960.73;104421;1316;109157;-68
2021/12/22 01:14:48;;;;;;;22.00;13.80;;;;;;;-2.87;73.67;100959.45;104319;1316;138872;-67
2021/12/22 01:17:20;;;;;;;21.50;13.60;;;;;;;-2.90;73.38;100958.65;103253;1315;97900;-68
2021/12/22 01:19:59;;;;;;;21.40;12.60;;;;;;;-2.93;73.50;100956.69;102967;1316;139438;-67
2021/12/22 01:22:37;;;;;;;22.70;13.60;;;;;;;-2.93;73.71;100954.14;103359;1317;139749;-67
2021/12/22 01:25:14;;;;;;;21.00;13.00;;;;;;;-2.92;73.69;100953.48;102933;1315;140312;-69
2021/12/22 01:27:46;;;;;;;22.80;12.10;;;;;;;-2.95;73.65;100955.11;104308;1315;139799;-67
2021/12/22 01:30:20;;;;;;;21.90;12.40;;;;;;;-2.90;73.72;100954.90;103416;1324;96434;-68
2021/12/22 01:32:54;;;;;;;22.60;14.00;;;;;;;-2.88;73.58;100953.61;104202;1315;139927;-67
2021/12/22 01:35:29;;;;;;;21.80;13.30;;;;;;;-2.86;73.58;100959.48;104356;1315;108900;-67
2021/12/22 01:38:01;;;;;;;21.50;13.50;;;;;;;-2.87;73.46;100963.52;104348;1317;138436;-67
2021/12/22 01:40:35;;;;;;;22.10;13.90;;;;;;;-2.89;73.84;100968.05;103375;1323;138323;-67
2021/12/22 01:43:08;;;;;;;26.30;15.00;;;;;;;-2.87;73.95;100972.69;103895;1315;138612;-67
2021/12/22 01:46:07;;;;;;;23.20;14.20;;;;;;;-2.86;73.66;100979.25;104060;1315;139727;-66
2021/12/22 01:51:41;;;;;;;23.50;14.60;;;;;;;-2.90;73.54;100982.30;104325;1316;140216;-66
2021/12/22 01:54:27;;;;;;;22.60;13.90;;;;;;;-2.94;73.71;100983.39;103123;1317;97914;-67
2021/12/22 01:57:05;;;;;;;21.40;13.80;;;;;;;-2.95;73.51;100988.11;102889;1315;139277;-67
2021/12/22 01:59:38;;;;;;;19.80;12.40;;;;;;;-2.96;73.57;100988.06;103039;1317;114506;-66
2021/12/22 02:02:12;;;;;;;22.50;13.50;;;;;;;-2.94;73.54;100991.52;102974;1315;139515;-67
2021/12/22 02:04:44;;;;;;;23.30;13.70;;;;;;;-2.91;73.85;100989.26;102936;1315;138407;-68
2021/12/22 02:07:16;;;;;;;22.50;14.40;;;;;;;-2.86;73.92;100995.04;102989;1317;138699;-67
2021/12/22 02:10:05;;;;;;;22.50;14.00;;;;;;;-2.83;73.69;100993.98;102964;1316;139041;-67
2021/12/22 02:12:42;;;;;;;23.20;14.70;;;;;;;-2.80;73.86;100991.67;103111;1316;112950;-67
2021/12/22 02:15:15;;;;;;;26.40;15.20;;;;;;;-2.76;73.35;100991.45;102862;1315;138842;-67
2021/12/22 02:17:48;;;;;;;22.20;14.00;;;;;;;-2.76;73.76;100984.66;103106;1315;109260;-67
2021/12/22 02:20:21;;;;;;;22.80;14.70;;;;;;;-2.78;73.53;100983.92;102965;1315;139668;-67
2021/12/22 02:22:56;;;;;;;26.70;15.00;;;;;;;-2.81;73.63;100983.50;102967;1316;138089;-69
2021/12/22 02:25:37;;;;;;;25.50;15.50;;;;;;;-2.82;73.44;100980.38;103023;1315;138629;-67
2021/12/22 02:28:15;;;;;;;23.40;15.20;;;;;;;-2.84;73.87;100982.36;102975;1313;138614;-67
2021/12/22 02:30:47;;;;;;;21.50;13.50;;;;;;;-2.86;73.95;100980.92;103123;1315;109017;-67
2021/12/22 02:33:25;;;;;;;22.50;14.20;;;;;;;-2.87;73.91;100979.36;102915;1312;139349;-67
2021/12/22 02:36:09;;;;;;;21.30;13.50;;;;;;;-2.86;73.97;100981.09;103148;1315;98074;-66
2021/12/22 02:38:44;;;;;;;23.30;13.30;;;;;;;-2.83;74.07;100981.39;102896;1314;139624;-66
2021/12/22 02:41:17;;;;;;;25.60;13.90;;;;;;;-2.77;73.90;100976.45;103144;1315;107956;-67
2021/12/22 02:43:52;;;;;;;21.40;13.40;;;;;;;-2.73;73.83;100978.30;102994;1315;139265;-66
2021/12/22 02:46:26;;;;;;;26.70;14.20;;;;;;;-2.69;73.85;100976.40;102949;1317;138526;-66
2021/12/22 02:48:59;;;;;;;23.00;13.80;;;;;;;-2.70;73.49;100980.27;103032;1315;139202;-66
2021/12/22 02:51:31;;;;;;;21.30;13.90;;;;;;;-2.74;73.55;100983.71;102993;1315;139130;-66
2021/12/22 02:54:10;;;;;;;24.60;14.70;;;;;;;-2.77;73.38;100990.09;103126;1315;107015;-66
2021/12/22 02:56:54;;;;;;;23.20;14.90;;;;;;;-2.80;73.68;100988.98;104302;1315;138150;-66
2021/12/22 02:59:48;;;;;;;25.40;14.30;;;;;;;-2.80;73.60;100991.52;104097;1315;96055;-69
2021/12/22 03:02:30;;;;;;;28.30;15.90;;;;;;;-2.82;73.86;100994.86;103543;1320;138846;-67
2021/12/22 03:05:04;;;;;;;29.80;14.50;;;;;;;-2.82;73.89;100993.33;104376;1316;139267;-67
2021/12/22 03:07:37;;;;;;;24.20;14.00;;;;;;;-2.80;73.49;100989.48;104088;1314;139172;-67
2021/12/22 03:10:13;;;;;;;23.10;14.00;;;;;;;-2.80;73.54;100983.20;104305;1316;140203;-67
2021/12/22 03:12:46;;;;;;;22.60;13.50;;;;;;;-2.78;74.00;100983.09;104242;1317;96136;-67
2021/12/22 03:15:18;;;;;;;22.10;14.20;;;;;;;-2.70;74.07;100985.72;104326;1316;138318;-66
2021/12/22 03:17:51;;;;;;;22.90;14.10;;;;;;;-2.65;73.64;100992.38;103486;1324;111506;-67
2021/12/22 03:20:23;;;;;;;23.00;13.80;;;;;;;-2.64;73.70;100995.10;104235;1315;138418;-67
2021/12/22 03:22:55;;;;;;;24.40;14.20;;;;;;;-2.68;73.63;100996.02;104007;1315;139623;-67
2021/12/22 03:25:27;;;;;;;24.70;14.40;;;;;;;-2.73;73.42;100998.88;103057;1313;139183;-67
2021/12/22 03:28:03;;;;;;;25.10;15.20;;;;;;;-2.76;73.48;101004.08;102976;1316;140322;-67
2021/12/22 03:30:35;;;;;;;23.40;14.70;;;;;;;-2.79;73.56;101008.58;103183;1313;111355;-67
2021/12/22 03:33:07;;;;;;;24.20;14.90;;;;;;;-2.86;73.35;101009.52;102912;1316;138565;-68
2021/12/22 03:35:39;;;;;;;21.00;13.40;;;;;;;-2.91;73.79;101013.23;103161;1315;107242;-68
2021/12/22 03:38:11;;;;;;;25.30;14.10;;;;;;;-2.95;73.81;101011.08;103031;1317;141856;-66
2021/12/22 03:40:43;;;;;;;25.70;13.90;;;;;;;-2.95;73.96;101013.11;102939;1319;140316;-66
2021/12/22 03:43:15;;;;;;;24.00;13.20;;;;;;;-2.96;73.93;101009.69;103012;1315;139386;-66
2021/12/22 03:45:47;;;;;;;22.50;13.20;;;;;;;-2.93;73.82;101013.69;103042;1315;139189;-67
2021/12/22 03:48:19;;;;;;;20.80;13.30;;;;;;;-2.88;74.15;101015.71;103104;1317;108386;-66
2021/12/22 03:50:52;;;;;;;22.30;13.10;;;;;;;-2.86;73.87;101018.04;102891;1315;139587;-66
2021/12/22 03:53:24;;;;;;;23.30;13.80;;;;;;;-2.87;73.81;101019.19;103113;1315;97868;-66
2021/12/22 03:55:56;;;;;;;22.40;13.50;;;;;;;-2.84;74.02;101020.14;103018;1315;138783;-68
2021/12/22 03:58:28;;;;;;;19.60;12.70;;;;;;;-2.82;73.80;101024.98;103013;1313;139069;-68
2021/12/22 04:01:00;;;;;;;21.80;13.50;;;;;;;-2.83;73.89;101024.59;103085;1315;210929;-67
2021/12/22 04:03:34;;;;;;;19.40;12.60;;;;;;;-2.86;73.76;101026.55;103064;1316;138217;-68
2021/12/22 04:06:07;;;;;;;24.00;13.70;;;;;;;-2.88;73.69;101023.73;103171;1315;98629;-66
2021/12/22 04:08:39;;;;;;;24.10;14.20;;;;;;;-2.94;73.95;101026.09;103076;1316;138344;-66
2021/12/22 04:11:11;;;;;;;23.30;13.90;;;;;;;-3.01;73.61;101026.55;103019;1315;138466;-67
2021/12/22 04:13:43;;;;;;;21.50;13.90;;;;;;;-3.06;73.76;101028.05;102989;1316;138853;-67
2021/12/22 04:16:14;;;;;;;21.20;13.20;;;;;;;-3.09;73.57;101031.02;103826;1313;138925;-67
2021/12/22 04:18:46;;;;;;;22.30;14.00;;;;;;;-3.08;73.84;101033.92;103837;1314;96147;-67
2021/12/22 04:21:18;;;;;;;21.60;13.40;;;;;;;-3.04;74.39;101037.66;102951;1319;140401;-67
2021/12/22 04:23:50;;;;;;;22.60;12.90;;;;;;;-2.99;74.03;101041.89;103116;1315;107366;-67
2021/12/22 04:26:22;;;;;;;23.60;13.90;;;;;;;-2.96;73.71;101036.70;102986;1315;139805;-67
2021/12/22 04:28:54;;;;;;;21.00;13.10;;;;;;;-2.98;74.09;101034.80;103033;1315;139159;-67
2021/12/22 04:31:26;;;;;;;20.70;13.10;;;;;;;-3.00;74.02;101034.20;102989;1316;138502;-67
2021/12/22 04:33:58;;;;;;;26.40;14.30;;;;;;;-3.04;73.97;101031.34;103018;1319;138417;-66
2021/12/22 04:36:30;;;;;;;23.90;14.50;;;;;;;-3.10;73.93;101033.02;103171;1315;108958;-67
2021/12/22 04:39:02;;;;;;;21.70;13.90;;;;;;;-3.12;73.84;101034.12;102974;1315;138982;-67
2021/12/22 04:41:35;;;;;;;21.50;14.00;;;;;;;-3.16;74.15;101034.17;103059;1316;97866;-66
2021/12/22 04:44:07;;;;;;;25.10;14.50;;;;;;;-3.21;73.88;101033.96;103082;1316;138491;-66
2021/12/22 04:46:39;;;;;;;25.00;14.50;;;;;;;-3.24;74.27;101033.70;103751;1315;138645;-67
2021/12/22 04:49:11;;;;;;;22.10;13.10;;;;;;;-3.23;74.11;101035.78;103415;1315;140128;-67
2021/12/22 04:51:51;;;;;;;20.90;12.90;;;;;;;-3.26;74.27;101030.19;103537;1315;139072;-66
2021/12/22 04:54:33;;;;;;;21.40;12.80;;;;;;;-3.25;74.32;101030.23;103619;1315;97867;-67
2021/12/22 04:57:06;;;;;;;21.50;13.10;;;;;;;-3.19;74.34;101029.80;103036;1315;139148;-67
2021/12/22 04:59:37;;;;;;;19.90;12.30;;;;;;;-3.18;74.23;101027.30;104506;1315;112590;-67
2021/12/22 05:02:09;;;;;;;17.40;11.80;;;;;;;-3.15;74.32;101026.02;103495;1315;138657;-67
2021/12/22 05:04:41;;;;;;;19.30;12.70;;;;;;;-3.15;74.43;101027.05;102956;1315;139926;-66
2021/12/22 05:07:13;;;;;;;20.20;12.80;;;;;;;-3.14;74.24;101029.29;102994;1315;139312;-66
2021/12/22 05:09:45;;;;;;;19.50;12.30;;;;;;;-3.17;74.52;101028.35;103115;1315;138288;-66
2021/12/22 05:12:17;;;;;;;21.90;13.60;;;;;;;-3.20;74.12;101033.34;103155;1316;112539;-67
2021/12/22 05:14:50;;;;;;;20.60;13.80;;;;;;;-3.26;74.20;101041.60;102993;1315;138439;-66
2021/12/22 05:17:26;;;;;;;22.40;13.60;;;;;;;-3.29;74.64;101041.67;102847;1316;139418;-66
2021/12/22 05:19:58;;;;;;;21.70;12.90;;;;;;;-3.29;74.60;101045.94;102830;1316;138363;-66
2021/12/22 05:22:30;;;;;;;20.20;13.30;;;;;;;-3.32;74.51;101044.63;102920;1316;140259;-66
2021/12/22 05:25:02;;;;;;;20.30;13.50;;;;;;;-3.33;74.80;101040.34;103054;1316;140201;-66
2021/12/22 05:27:35;;;;;;;19.30;13.00;;;;;;;-3.33;74.86;101044.92;104344;1315;143887;-67
2021/12/22 05:30:10;;;;;;;20.00;13.40;;;;;;;-3.31;75.14;101046.36;104094;1316;107592;-67
2021/12/22 05:32:42;;;;;;;20.00;13.40;;;;;;;-3.31;74.70;101046.54;103158;1318;139593;-67
2021/12/22 05:35:14;;;;;;;18.70;12.60;;;;;;;-3.29;75.11;101047.79;102949;1318;139036;-68
2021/12/22 05:37:46;;;;;;;18.60;12.20;;;;;;;-3.25;75.07;101049.11;103037;1316;139783;-68
2021/12/22 05:40:18;;;;;;;18.90;12.60;;;;;;;-3.23;75.30;101052.98;103263;1316;139205;-66
2021/12/22 05:42:50;;;;;;;18.20;12.10;;;;;;;-3.21;74.84;101054.22;104434;1315;108944;-68
2021/12/22 05:45:22;;;;;;;19.40;12.80;;;;;;;-3.18;75.34;101057.91;103834;1317;139964;-66
2021/12/22 05:47:54;;;;;;;21.10;13.50;;;;;;;-3.18;74.99;101062.16;103111;1316;97864;-67
2021/12/22 05:50:27;;;;;;;23.10;14.60;;;;;;;-3.15;75.03;101064.80;103932;1316;139205;-67
2021/12/22 05:52:59;;;;;;;23.60;14.40;;;;;;;-3.13;75.16;101071.19;103518;1315;138274;-66
2021/12/22 05:55:30;;;;;;;22.90;15.30;;;;;;;-3.12;74.69;101078.52;102992;1316;138646;-68
2021/12/22 05:58:02;;;;;;;26.00;16.20;;;;;;;-3.09;75.32;101080.16;103465;1317;138573;-66
2021/12/22 06:00:34;;;;;;;24.30;15.00;;;;;;;-3.04;75.38;101083.94;103341;1316;100135;-66
2021/12/22 06:03:06;;;;;;;24.60;15.20;;;;;;;-3.05;75.05;101088.68;102912;1317;138962;-68
2021/12/22 06:05:39;;;;;;;28.50;15.60;;;;;;;-3.03;75.19;101091.45;103050;1315;109737;-66
2021/12/22 06:08:11;;;;;;;23.40;14.80;;;;;;;-2.99;75.20;101098.04;103003;1316;139935;-67
2021/12/22 06:10:42;;;;;;;21.60;13.90;;;;;;;-2.94;75.32;101097.53;102924;1317;140133;-67
2021/12/22 06:13:14;;;;;;;22.00;14.70;;;;;;;-2.87;75.30;101100.70;102933;1315;139148;-67
2021/12/22 06:15:46;;;;;;;25.40;15.20;;;;;;;-2.86;75.20;101106.38;103031;1315;138377;-66
2021/12/22 06:18:18;;;;;;;28.20;16.00;;;;;;;-2.86;75.04;101113.35;103105;1316;109472;-66
2021/12/22 06:20:50;;;;;;;28.60;16.60;;;;;;;-2.87;74.93;101117.41;103020;1315;138349;-67
2021/12/22 06:23:22;;;;;;;26.20;16.40;;;;;;;-2.84;74.91;101122.44;102928;1315;138200;-67
2021/12/22 06:25:54;;;;;;;27.20;16.90;;;;;;;-2.82;74.63;101127.24;102953;1315;139248;-67
2021/12/22 06:28:26;;;;;;;29.90;17.30;;;;;;;-2.82;74.81;101121.11;104182;1315;138540;-68
2021/12/22 06:30:58;;;;;;;31.10;17.30;;;;;;;-2.81;74.84;101130.02;104044;1317;138915;-68
2021/12/22 06:33:30;;;;;;;29.70;18.30;;;;;;;-2.83;74.50;101127.91;104311;1316;138669;-68
2021/12/22 06:36:02;;;;;;;29.30;16.20;;;;;;;-2.86;74.44;101127.45;103859;1315;138933;-68
2021/12/22 06:38:34;;;;;;;28.40;17.80;;;;;;;-2.90;74.87;101127.80;103440;1315;140721;-66
2021/12/22 06:41:07;;;;;;;28.30;16.80;;;;;;;-2.89;74.93;101128.00;103439;1315;139310;-67
2021/12/22 06:43:39;;;;;;;26.10;15.60;;;;;;;-2.86;74.72;101124.04;103451;1315;139858;-67
2021/12/22 06:46:11;;;;;;;27.10;15.80;;;;;;;-2.84;74.86;101124.96;103300;1315;139070;-66
2021/12/22 06:48:43;;;;;;;25.40;14.90;;;;;;;-2.82;74.82;101145.12;103507;1315;97567;-67
2021/12/22 06:51:16;;;;;;;25.30;15.30;;;;;;;-2.77;74.67;101147.69;103341;1317;139221;-67
2021/12/22 06:53:48;;;;;;;25.60;16.00;;;;;;;-2.74;74.68;101147.46;102761;1315;112601;-67
2021/12/22 06:56:20;;;;;;;27.00;15.90;;;;;;;-2.72;74.49;101150.05;103741;1315;139033;-67
2021/12/22 06:58:51;;;;;;;26.60;16.40;;;;;;;-2.73;74.89;101150.89;104128;1315;139534;-67
2021/12/22 07:01:24;;;;;;;30.50;16.50;;;;;;;-2.69;74.79;101146.44;104068;1315;138875;-67
2021/12/22 07:03:56;;;;;;;32.10;17.50;;;;;;;-2.65;74.67;101152.38;104240;1313;138869;-67
2021/12/22 07:06:27;;;;;;;29.10;17.20;;;;;;;-2.66;74.61;101149.81;104292;1316;112570;-67
2021/12/22 07:09:00;;;;;;;31.10;17.50;;;;;;;-2.68;74.64;101155.82;104265;1316;139323;-67
2021/12/22 07:11:33;;;;;;;31.70;18.60;;;;;;;-2.71;74.51;101154.86;104185;1316;141863;-67
2021/12/22 07:14:07;;;;;;;31.80;17.30;;;;;;;-2.73;74.46;101158.02;104181;1315;139911;-67
2021/12/22 07:16:40;;;;;;;29.90;17.60;;;;;;;-2.76;74.79;101157.44;104244;1315;139739;-67
2021/12/22 07:19:13;;;;;;;29.10;17.30;;;;;;;-2.74;74.63;101160.89;103297;1320;139812;-68
2021/12/22 07:21:49;;;;;;;29.20;16.50;;;;;;;-2.72;74.84;101161.13;103951;1315;139395;-67
2021/12/22 07:24:23;;;;;;;29.60;17.20;;;;;;;-2.67;75.22;101166.26;104216;1316;110015;-69
2021/12/22 07:27:00;;;;;;;28.10;17.00;;;;;;;-2.58;75.07;101167.59;103174;1322;141635;-68
2021/12/22 07:29:31;;;;;;;;;;;;;;;-2.51;74.78;101164.82;104122;1316;138044;-69
2021/12/22 07:32:10;;;;;;;29.40;17.20;;;;;;;-2.45;75.19;101166.54;104215;1315;125042;-67
2021/12/22 07:35:14;;;;;;;32.20;18.00;;;;;;;-2.40;75.13;101164.14;103119;1322;138875;-67
2021/12/22 07:38:37;;;;;;;31.50;18.60;;;;;;;-2.40;74.50;101170.27;103611;1315;140557;-69
2021/12/22 07:41:31;;;;;;;34.20;18.70;;;;;;;-2.38;74.71;101176.45;102906;1325;138876;-68
2021/12/22 07:44:29;;;;;;;33.10;19.60;;;;;;;-2.44;74.72;101181.91;103000;1324;138661;-70
2021/12/22 07:47:46;;;;;;;36.00;19.30;;;;;;;-2.53;74.42;101180.90;102893;1315;138995;-69
2021/12/22 07:50:38;;;;;;;33.50;19.60;;;;;;;-2.54;74.71;101179.14;103193;1315;138528;-69
2021/12/22 07:54:06;;;;;;;33.30;19.20;;;;;;;-2.57;74.66;101182.29;104042;1319;138472;-69
2021/12/22 07:57:15;;;;;;;32.90;19.80;;;;;;;-2.54;74.85;101182.02;102994;1322;139377;-68
2021/12/22 08:00:33;;;;;;;33.70;19.20;;;;;;;-2.52;74.46;101183.31;103067;1315;138677;-68
2021/12/22 08:06:42;;;;;;;36.50;19.70;;;;;;;-2.33;74.95;101191.14;104147;1317;138694;-71
2021/12/22 08:10:15;;;;;;;34.70;20.40;;;;;;;-2.29;74.85;101195.19;104052;1315;138244;-68
2021/12/22 08:13:36;;;;;;;35.80;20.60;;;;;;;-2.24;74.87;101200.30;103930;1316;96856;-68
2021/12/22 08:20:05;;;;;;;36.60;19.30;;;;;;;-2.18;74.59;101191.15;104376;1315;112924;-69
2021/12/22 08:23:02;;;;;;;32.10;18.70;;;;;;;-2.19;74.14;101190.42;103469;1318;108406;-68
2021/12/22 08:26:10;;;;;;;33.50;18.40;;;;;;;-2.22;74.07;101190.31;103333;1323;108332;-68
2021/12/22 08:33:04;;;;;;;33.70;19.90;;;;;;;-2.31;74.02;101180.98;104219;1318;97423;-68
2021/12/22 08:40:08;;;;;;;36.80;19.70;;;;;;;-2.37;74.23;101186.05;104378;1315;138281;-69
2021/12/22 08:44:18;;;;;;;35.00;19.20;;;;;;;-2.38;73.87;101191.13;103327;1315;139407;-68
2021/12/22 08:51:36;;;;;;;37.40;19.20;;;;;;;-2.36;74.32;101190.35;104035;1316;96123;-68
2021/12/22 08:55:02;;;;;;;32.50;18.60;;;;;;;-2.32;73.84;101190.69;103512;1322;112688;-69
2021/12/22 08:58:26;;;;;;;35.90;19.60;;;;;;;-2.32;73.92;101194.39;102647;1318;138786;-68
2021/12/22 09:01:49;;;;;;;33.70;20.50;;;;;;;-2.33;74.01;101204.44;102401;1318;139110;-68
2021/12/22 09:04:55;;;;;;;35.90;19.00;;;;;;;-2.32;73.76;101203.94;102388;1322;138527;-69
2021/12/22 09:07:34;;;;;;;35.60;19.80;;;;;;;-2.35;73.94;101204.01;102442;1321;138789;-68
2021/12/22 09:10:14;;;;;;;37.10;20.20;;;;;;;-2.35;73.75;101211.14;102317;1319;138703;-68
2021/12/22 09:16:08;;;;;;;38.00;19.60;;;;;;;-2.48;73.44;101207.64;102170;1321;139828;-69
2021/12/22 09:19:11;;;;;;;;;;;;;;;-2.52;73.81;101212.25;103787;1315;96146;-68
2021/12/22 09:22:52;;;;;;;;;;;;;;;-2.52;74.22;101219.27;104359;1315;96086;-68
2021/12/22 09:30:02;;;;;;;35.40;19.40;;;;;;;-2.39;74.19;101222.43;102497;1322;107979;-69
2021/12/22 09:33:13;;;;;;;36.80;18.70;;;;;;;-2.32;73.96;101225.23;102290;1326;138714;-70
2021/12/22 09:36:55;;;;;;;35.50;19.40;;;;;;;-2.24;74.10;101225.36;102484;1324;97853;-70
2021/12/22 09:40:35;;;;;;;37.30;19.60;;;;;;;-2.22;74.08;101223.39;103172;1320;138777;-69
2021/12/22 09:43:59;;;;;;;38.20;20.20;;;;;;;-2.22;74.20;101224.38;103856;1320;111842;-68
2021/12/22 09:54:08;;;;;;;38.40;21.80;;;;;;;-2.12;73.98;101227.98;103985;1320;96391;-67
2021/12/22 09:56:42;;;;;;;41.10;21.90;;;;;;;-2.09;73.81;101224.70;103412;1327;96213;-66
2021/12/22 09:59:16;;;;;;;39.10;20.90;;;;;;;-2.03;73.92;101220.96;103828;1324;138235;-67
2021/12/22 10:01:48;;;;;;;38.60;21.10;;;;;;;-2.00;73.41;101221.56;103901;1321;109086;-68
2021/12/22 10:04:20;;;;;;;36.70;20.70;;;;;;;-2.00;73.51;101220.55;103809;1320;138944;-67
2021/12/22 10:06:53;;;;;;;36.80;20.20;;;;;;;-1.95;73.03;101218.37;103674;1320;97888;-68
2021/12/22 10:09:26;;;;;;;35.70;19.40;;;;;;;-1.87;73.12;101212.13;103027;1316;139098;-68
2021/12/22 10:11:58;;;;;;;37.90;20.20;;;;;;;-1.80;73.02;101204.02;103071;1315;112708;-69
2021/12/22 10:14:54;;;;;;;34.70;19.60;;;;;;;-1.76;72.97;101199.20;103151;1315;107870;-67
2021/12/22 10:17:32;;;;;;;32.80;19.40;;;;;;;-1.70;72.88;101199.41;103008;1314;138303;-67
2021/12/22 10:20:08;;;;;;;35.40;19.00;;;;;;;-1.65;73.08;101200.07;103135;1317;98017;-67
2021/12/22 10:22:42;;;;;;;35.90;20.40;;;;;;;-1.66;72.28;101203.97;104102;1314;138566;-66
2021/12/22 10:25:16;;;;;;;35.30;19.70;;;;;;;-1.66;72.74;101206.85;104539;1315;112791;-68
2021/12/22 10:28:00;;;;;;;37.70;20.40;;;;;;;-1.70;72.72;101208.44;104431;1317;138286;-68
2021/12/22 10:30:36;;;;;;;35.50;20.60;;;;;;;-1.76;72.10;101208.25;104508;1316;107433;-68
2021/12/22 10:33:15;;;;;;;37.10;21.00;;;;;;;-1.75;72.61;101205.72;103882;1317;138560;-68
2021/12/22 10:35:51;;;;;;;43.90;21.50;;;;;;;-1.76;72.40;101208.75;104294;1316;96571;-68
2021/12/22 10:38:26;;;;;;;37.70;21.10;;;;;;;-1.80;72.32;101210.66;103269;1317;111457;-68
2021/12/22 10:41:01;;;;;;;41.10;22.00;;;;;;;-1.86;72.21;101207.41;103054;1317;138247;-67
2021/12/22 10:43:39;;;;;;;38.10;20.70;;;;;;;-1.89;72.43;101211.23;103192;1320;108902;-70
2021/12/22 10:46:15;;;;;;;37.80;20.40;;;;;;;-1.90;72.39;101212.73;103046;1316;139039;-68
2021/12/22 10:51:37;;;;;;;34.40;19.90;;;;;;;-2.01;72.20;101212.52;103192;1316;139671;-67
2021/12/22 10:54:11;;;;;;;32.50;17.90;;;;;;;-1.98;72.69;101209.23;104517;1316;109159;-68
2021/12/22 10:56:47;;;;;;;35.10;20.50;;;;;;;-1.91;72.40;101201.95;104496;1315;107767;-68
2021/12/22 10:59:21;;;;;;;39.10;21.70;;;;;;;-1.85;72.56;101206.59;104383;1316;138803;-68
2021/12/22 11:02:07;;;;;;;38.40;21.00;;;;;;;-1.84;72.39;101205.10;103534;1316;97858;-68
2021/12/22 11:04:45;;;;;;;39.90;21.70;;;;;;;-1.80;72.19;101198.55;103990;1316;138527;-68
2021/12/22 11:07:23;;;;;;;36.90;20.90;;;;;;;-1.77;72.37;101197.83;104515;1317;109090;-69
2021/12/22 11:09:56;;;;;;;36.90;21.40;;;;;;;-1.75;72.08;101196.69;104393;1315;138132;-69
2021/12/22 11:12:38;;;;;;;40.10;21.90;;;;;;;-1.72;72.25;101197.98;104553;1314;96029;-68
2021/12/22 11:15:23;;;;;;;41.10;21.40;;;;;;;-1.74;72.09;101198.09;103911;1315;138373;-68
2021/12/22 11:17:55;;;;;;;39.80;21.50;;;;;;;-1.78;71.93;101195.40;104562;1317;111773;-69
2021/12/22 11:20:27;;;;;;;44.30;25.50;;;;;;;-1.84;72.06;101198.95;104510;1315;108633;-68
2021/12/22 11:23:00;;;;;;;41.30;22.70;;;;;;;-1.86;71.86;101198.39;104301;1316;138216;-67
2021/12/22 11:25:32;;;;;;;37.60;21.90;;;;;;;-1.88;71.94;101200.35;104304;1317;98008;-68
2021/12/22 11:28:06;;;;;;;37.50;20.90;;;;;;;-1.89;72.13;101204.92;102897;1316;138784;-68
2021/12/22 11:30:37;;;;;;;36.70;20.50;;;;;;;-1.88;72.11;101204.45;103081;1315;112975;-66
2021/12/22 11:33:10;;;;;;;35.30;20.30;;;;;;;-1.87;72.00;101205.84;102782;1318;139345;-67
2021/12/22 11:35:43;;;;;;;46.80;25.40;;;;;;;-1.88;71.97;101203.77;103046;1316;108933;-68
2021/12/22 11:38:18;;;;;;;38.80;22.20;;;;;;;-1.89;72.19;101204.07;103713;1317;97808;-69
2021/12/22 11:40:55;;;;;;;39.40;20.70;;;;;;;-1.87;72.42;101200.73;102948;1315;138296;-67
2021/12/22 11:43:27;;;;;;;41.80;22.70;;;;;;;-1.88;72.27;101204.13;103145;1317;112564;-66
2021/12/22 11:46:01;;;;;;;37.90;22.30;;;;;;;-1.85;72.28;101204.73;102933;1317;138775;-68
2021/12/22 11:48:35;;;;;;;40.20;21.40;;;;;;;-1.83;72.01;101201.55;102970;1315;108874;-68
2021/12/22 11:51:24;;;;;;;40.60;21.60;;;;;;;-1.80;72.14;101202.66;102846;1316;138509;-68
2021/12/22 11:53:59;;;;;;;45.40;22.80;;;;;;;-1.78;72.18;101200.16;103007;1316;97839;-68
2021/12/22 11:56:40;;;;;;;40.90;22.80;;;;;;;-1.78;72.22;101198.30;103140;1315;112602;-69
2021/12/22 12:02:34;;;;;;;43.10;23.00;;;;;;;-1.72;72.52;101195.42;100251;1352;637071;-68
2021/12/22 12:05:18;;;;;;;45.10;21.60;;;;;;;-1.70;72.12;101196.51;102679;1322;137593;-67
2021/12/22 12:07:53;;;;;;;38.20;21.40;;;;;;;-1.73;72.17;101194.86;102881;1326;94548;-68
2021/12/22 12:10:49;;;;;;;32.80;19.70;;;;;;;-1.76;71.67;101196.81;103131;1323;138679;-68
2021/12/22 12:13:41;;;;;;;33.60;19.80;;;;;;;-1.79;71.92;101197.40;104006;1323;108948;-68
2021/12/22 12:22:33;;;;;;;41.50;21.70;;;;;;;-1.85;72.09;101199.26;103891;1323;136921;-67
2021/12/22 12:25:09;;;;;;;39.40;21.30;;;;;;;-1.85;71.92;101198.40;103287;1326;108837;-65
2021/12/22 12:27:47;;;;;;;42.70;22.80;;;;;;;-1.89;72.19;101202.71;102792;1324;138058;-66
2021/12/22 12:30:45;;;;;;;39.90;22.70;;;;;;;-1.93;72.23;101203.26;103574;1320;108950;-65
2021/12/22 12:33:24;;;;;;;42.80;23.40;;;;;;;-2.01;72.41;101199.40;103368;1317;138904;-65
2021/12/22 12:35:59;;;;;;;41.10;23.30;;;;;;;-2.04;72.48;101199.96;103002;1319;95307;-67
2021/12/22 12:38:45;;;;;;;39.80;23.30;;;;;;;-2.13;72.39;101206.84;103235;1319;109992;-66